イスラマバード の空港の天気 - METARとTAF

イスラマバード国際空港 ( OPRN / ISB ) - パキスタン Islamabad
飛行場実況気象(Metar)
観測時間11/14 22:29 PKT (11/14 17:29 UTC)
風向・風速静穏 0m/s
視程7000m
天気現象
-
気温13℃
湿度77%
気圧1017hPa
METAROPRN 141729Z 00000KT 7000 13/09 Q1017 NOSIG RMK A3004
過去の天気等 Google飛行場航空写真 Wunderground天気予報

過去48時間のMETAR

飛行場予報(TAF)
発表時間: 11/14 20:30 PKT (11/14 15:30 UTC)
予報対象時間: 14日23時 PKT ~ 16日5時 PKT
風向・風速北東 5m/s
視程8000m
なし
15日5時 PKT ~ 15日8時 PKT に一時的に
風向・風速南東 5m/s
視程2000m
天気現象もや
なし
15日9時 PKT ~ 15日20時 PKT に一時的に
視程10km以上
なし
TAF OPRN 141530Z 1418/1524 05010KT 8000 NSC
TEMPO 1500/1503 13010KT 2000 BR NSC
TEMPO 1504/1515 CAVOK